sensor_id;sensor_type;location;lat;lon;timestamp;temperature;humidity
9537;DHT22;4807;48.024;11.726;2024-01-25T00:01:55;7.40;99.90
9537;DHT22;4807;48.024;11.726;2024-01-25T00:05:05;7.40;99.90
9537;DHT22;4807;48.024;11.726;2024-01-25T00:08:15;7.40;99.90
9537;DHT22;4807;48.024;11.726;2024-01-25T00:11:23;7.40;99.90
9537;DHT22;4807;48.024;11.726;2024-01-25T00:14:31;7.30;99.90
9537;DHT22;4807;48.024;11.726;2024-01-25T00:17:40;7.30;99.90
9537;DHT22;4807;48.024;11.726;2024-01-25T00:20:50;7.20;99.90
9537;DHT22;4807;48.024;11.726;2024-01-25T00:23:59;7.30;99.90
9537;DHT22;4807;48.024;11.726;2024-01-25T00:27:07;7.20;99.90
9537;DHT22;4807;48.024;11.726;2024-01-25T00:30:15;7.20;99.90
9537;DHT22;4807;48.024;11.726;2024-01-25T00:33:23;7.30;99.90
9537;DHT22;4807;48.024;11.726;2024-01-25T00:36:34;7.30;99.90
9537;DHT22;4807;48.024;11.726;2024-01-25T00:39:43;7.30;99.90
9537;DHT22;4807;48.024;11.726;2024-01-25T00:42:53;7.30;99.90
9537;DHT22;4807;48.024;11.726;2024-01-25T00:46:03;7.30;99.90
9537;DHT22;4807;48.024;11.726;2024-01-25T00:49:12;7.30;99.90
9537;DHT22;4807;48.024;11.726;2024-01-25T00:52:22;7.20;99.90
9537;DHT22;4807;48.024;11.726;2024-01-25T00:55:31;7.30;99.90
9537;DHT22;4807;48.024;11.726;2024-01-25T00:58:41;7.30;99.90
9537;DHT22;4807;48.024;11.726;2024-01-25T01:01:53;7.20;99.90
9537;DHT22;4807;48.024;11.726;2024-01-25T01:05:04;7.30;99.90
9537;DHT22;4807;48.024;11.726;2024-01-25T01:08:15;7.30;99.90
9537;DHT22;4807;48.024;11.726;2024-01-25T01:11:24;7.40;99.90
9537;DHT22;4807;48.024;11.726;2024-01-25T01:14:32;7.40;99.90
9537;DHT22;4807;48.024;11.726;2024-01-25T01:17:41;7.40;99.90
9537;DHT22;4807;48.024;11.726;2024-01-25T01:20:49;7.40;99.90
9537;DHT22;4807;48.024;11.726;2024-01-25T01:23:59;7.30;99.90
9537;DHT22;4807;48.024;11.726;2024-01-25T01:27:07;7.30;99.90
9537;DHT22;4807;48.024;11.726;2024-01-25T01:30:15;7.40;99.90
9537;DHT22;4807;48.024;11.726;2024-01-25T01:33:23;7.40;99.90
9537;DHT22;4807;48.024;11.726;2024-01-25T01:36:32;7.50;99.90
9537;DHT22;4807;48.024;11.726;2024-01-25T01:39:41;7.50;99.90
9537;DHT22;4807;48.024;11.726;2024-01-25T01:42:50;7.40;99.90
9537;DHT22;4807;48.024;11.726;2024-01-25T01:46:03;7.50;99.90
9537;DHT22;4807;48.024;11.726;2024-01-25T01:49:16;7.40;99.90
9537;DHT22;4807;48.024;11.726;2024-01-25T01:52:25;7.10;99.90
9537;DHT22;4807;48.024;11.726;2024-01-25T01:55:35;7.40;99.90
9537;DHT22;4807;48.024;11.726;2024-01-25T01:58:45;7.30;99.90
9537;DHT22;4807;48.024;11.726;2024-01-25T02:01:55;7.40;99.90
9537;DHT22;4807;48.024;11.726;2024-01-25T02:05:04;7.30;99.90
9537;DHT22;4807;48.024;11.726;2024-01-25T02:08:13;7.40;99.90
9537;DHT22;4807;48.024;11.726;2024-01-25T02:11:24;7.40;99.90
9537;DHT22;4807;48.024;11.726;2024-01-25T02:14:32;7.50;99.90
9537;DHT22;4807;48.024;11.726;2024-01-25T02:17:41;7.40;99.90
9537;DHT22;4807;48.024;11.726;2024-01-25T02:20:50;8.40;99.90
9537;DHT22;4807;48.024;11.726;2024-01-25T02:24:00;7.40;99.90
9537;DHT22;4807;48.024;11.726;2024-01-25T02:27:08;7.50;99.90
9537;DHT22;4807;48.024;11.726;2024-01-25T02:30:16;7.40;99.90
9537;DHT22;4807;48.024;11.726;2024-01-25T02:33:24;7.50;99.90
9537;DHT22;4807;48.024;11.726;2024-01-25T02:36:33;7.50;99.90
9537;DHT22;4807;48.024;11.726;2024-01-25T02:39:42;7.50;99.90
9537;DHT22;4807;48.024;11.726;2024-01-25T02:42:51;7.50;99.90
9537;DHT22;4807;48.024;11.726;2024-01-25T02:45:59;7.50;99.90
9537;DHT22;4807;48.024;11.726;2024-01-25T02:49:08;7.50;99.90
9537;DHT22;4807;48.024;11.726;2024-01-25T02:52:16;7.40;99.90
9537;DHT22;4807;48.024;11.726;2024-01-25T02:55:26;7.40;99.90
9537;DHT22;4807;48.024;11.726;2024-01-25T02:58:34;7.40;99.90
9537;DHT22;4807;48.024;11.726;2024-01-25T03:01:43;7.40;99.90
9537;DHT22;4807;48.024;11.726;2024-01-25T03:04:52;7.40;99.90
9537;DHT22;4807;48.024;11.726;2024-01-25T03:08:01;7.40;99.90
9537;DHT22;4807;48.024;11.726;2024-01-25T03:11:11;7.40;99.90
9537;DHT22;4807;48.024;11.726;2024-01-25T03:14:19;7.30;99.90
9537;DHT22;4807;48.024;11.726;2024-01-25T03:17:27;7.30;99.90
9537;DHT22;4807;48.024;11.726;2024-01-25T03:20:36;7.20;99.90
9537;DHT22;4807;48.024;11.726;2024-01-25T03:23:44;7.30;99.90
9537;DHT22;4807;48.024;11.726;2024-01-25T03:26:54;7.20;99.90
9537;DHT22;4807;48.024;11.726;2024-01-25T03:30:03;7.20;99.90
9537;DHT22;4807;48.024;11.726;2024-01-25T03:33:13;7.10;99.90
9537;DHT22;4807;48.024;11.726;2024-01-25T03:36:21;7.10;99.90
9537;DHT22;4807;48.024;11.726;2024-01-25T03:39:29;7.10;99.90
9537;DHT22;4807;48.024;11.726;2024-01-25T03:42:39;7.20;99.90
9537;DHT22;4807;48.024;11.726;2024-01-25T03:45:54;7.10;99.90
9537;DHT22;4807;48.024;11.726;2024-01-25T03:49:02;7.00;99.90
9537;DHT22;4807;48.024;11.726;2024-01-25T03:52:11;7.00;99.90
9537;DHT22;4807;48.024;11.726;2024-01-25T03:55:19;7.00;99.90
9537;DHT22;4807;48.024;11.726;2024-01-25T03:58:29;7.00;99.90
9537;DHT22;4807;48.024;11.726;2024-01-25T04:01:42;7.00;99.90
9537;DHT22;4807;48.024;11.726;2024-01-25T04:04:51;7.00;99.90
9537;DHT22;4807;48.024;11.726;2024-01-25T04:07:59;6.90;99.90
9537;DHT22;4807;48.024;11.726;2024-01-25T04:11:08;7.00;99.90
9537;DHT22;4807;48.024;11.726;2024-01-25T04:14:18;6.90;99.90
9537;DHT22;4807;48.024;11.726;2024-01-25T04:17:26;7.00;99.90
9537;DHT22;4807;48.024;11.726;2024-01-25T04:20:34;6.90;99.90
9537;DHT22;4807;48.024;11.726;2024-01-25T04:23:43;6.90;99.90
9537;DHT22;4807;48.024;11.726;2024-01-25T04:26:51;7.00;99.90
9537;DHT22;4807;48.024;11.726;2024-01-25T04:30:01;7.00;99.90
9537;DHT22;4807;48.024;11.726;2024-01-25T04:33:11;7.00;99.90
9537;DHT22;4807;48.024;11.726;2024-01-25T04:36:19;7.00;99.90
9537;DHT22;4807;48.024;11.726;2024-01-25T04:39:28;7.00;99.90
9537;DHT22;4807;48.024;11.726;2024-01-25T04:42:37;7.00;99.90
9537;DHT22;4807;48.024;11.726;2024-01-25T04:45:47;7.00;99.90
9537;DHT22;4807;48.024;11.726;2024-01-25T04:48:56;7.00;99.90
9537;DHT22;4807;48.024;11.726;2024-01-25T04:52:05;7.00;99.90
9537;DHT22;4807;48.024;11.726;2024-01-25T04:55:13;7.00;99.90
9537;DHT22;4807;48.024;11.726;2024-01-25T04:58:22;7.00;99.90
9537;DHT22;4807;48.024;11.726;2024-01-25T05:01:32;7.10;99.90
9537;DHT22;4807;48.024;11.726;2024-01-25T05:04:40;7.00;99.90
9537;DHT22;4807;48.024;11.726;2024-01-25T05:07:52;7.00;99.90
9537;DHT22;4807;48.024;11.726;2024-01-25T05:11:00;7.00;99.90
9537;DHT22;4807;48.024;11.726;2024-01-25T05:14:13;7.00;99.90
9537;DHT22;4807;48.024;11.726;2024-01-25T05:17:23;7.10;99.90
9537;DHT22;4807;48.024;11.726;2024-01-25T05:20:31;7.20;99.90
9537;DHT22;4807;48.024;11.726;2024-01-25T05:23:41;7.20;99.90
9537;DHT22;4807;48.024;11.726;2024-01-25T05:26:49;7.10;99.90
9537;DHT22;4807;48.024;11.726;2024-01-25T05:29:58;7.10;99.90
9537;DHT22;4807;48.024;11.726;2024-01-25T05:33:07;7.20;99.90
9537;DHT22;4807;48.024;11.726;2024-01-25T05:36:16;7.10;99.90
9537;DHT22;4807;48.024;11.726;2024-01-25T05:39:24;7.10;99.90
9537;DHT22;4807;48.024;11.726;2024-01-25T05:42:33;7.10;99.90
9537;DHT22;4807;48.024;11.726;2024-01-25T05:45:41;7.10;99.90
9537;DHT22;4807;48.024;11.726;2024-01-25T05:48:51;7.00;99.90
9537;DHT22;4807;48.024;11.726;2024-01-25T05:52:00;7.00;99.90
9537;DHT22;4807;48.024;11.726;2024-01-25T05:55:09;7.00;99.90
9537;DHT22;4807;48.024;11.726;2024-01-25T05:58:17;7.00;99.90
9537;DHT22;4807;48.024;11.726;2024-01-25T06:01:26;7.00;99.90
9537;DHT22;4807;48.024;11.726;2024-01-25T06:04:36;6.90;99.90
9537;DHT22;4807;48.024;11.726;2024-01-25T06:07:45;7.00;99.90
9537;DHT22;4807;48.024;11.726;2024-01-25T06:10:53;7.00;99.90
9537;DHT22;4807;48.024;11.726;2024-01-25T06:14:02;7.00;99.90
9537;DHT22;4807;48.024;11.726;2024-01-25T06:17:11;6.90;99.90
9537;DHT22;4807;48.024;11.726;2024-01-25T06:20:21;6.90;99.90
9537;DHT22;4807;48.024;11.726;2024-01-25T06:23:30;7.00;99.90
9537;DHT22;4807;48.024;11.726;2024-01-25T06:26:38;7.00;99.90
9537;DHT22;4807;48.024;11.726;2024-01-25T06:29:47;7.00;99.90
9537;DHT22;4807;48.024;11.726;2024-01-25T06:32:55;7.00;99.90
9537;DHT22;4807;48.024;11.726;2024-01-25T06:36:06;7.00;99.90
9537;DHT22;4807;48.024;11.726;2024-01-25T06:39:16;7.00;99.90
9537;DHT22;4807;48.024;11.726;2024-01-25T06:42:24;6.90;99.90
9537;DHT22;4807;48.024;11.726;2024-01-25T06:45:32;6.90;99.90
9537;DHT22;4807;48.024;11.726;2024-01-25T06:48:41;6.80;99.90
9537;DHT22;4807;48.024;11.726;2024-01-25T06:51:53;6.90;99.90
9537;DHT22;4807;48.024;11.726;2024-01-25T06:55:01;6.80;99.90
9537;DHT22;4807;48.024;11.726;2024-01-25T06:58:09;6.70;99.90
9537;DHT22;4807;48.024;11.726;2024-01-25T07:01:20;6.70;99.90
9537;DHT22;4807;48.024;11.726;2024-01-25T07:04:30;6.70;99.90
9537;DHT22;4807;48.024;11.726;2024-01-25T07:07:41;6.70;99.90
9537;DHT22;4807;48.024;11.726;2024-01-25T07:10:49;6.70;99.90
9537;DHT22;4807;48.024;11.726;2024-01-25T07:13:58;6.70;99.90
9537;DHT22;4807;48.024;11.726;2024-01-25T07:17:06;6.70;99.90
9537;DHT22;4807;48.024;11.726;2024-01-25T07:20:14;6.70;99.90
9537;DHT22;4807;48.024;11.726;2024-01-25T07:23:25;6.70;99.90
9537;DHT22;4807;48.024;11.726;2024-01-25T07:26:35;6.70;99.90
9537;DHT22;4807;48.024;11.726;2024-01-25T07:29:44;6.70;99.90
9537;DHT22;4807;48.024;11.726;2024-01-25T07:32:53;6.70;99.90
9537;DHT22;4807;48.024;11.726;2024-01-25T07:36:01;6.70;99.90
9537;DHT22;4807;48.024;11.726;2024-01-25T07:39:11;6.60;99.90
9537;DHT22;4807;48.024;11.726;2024-01-25T07:42:19;6.60;99.90
9537;DHT22;4807;48.024;11.726;2024-01-25T07:45:28;6.60;99.90
9537;DHT22;4807;48.024;11.726;2024-01-25T07:48:36;6.70;99.90
9537;DHT22;4807;48.024;11.726;2024-01-25T07:51:45;6.70;99.90
9537;DHT22;4807;48.024;11.726;2024-01-25T07:54:55;6.80;99.90
9537;DHT22;4807;48.024;11.726;2024-01-25T07:58:04;6.80;99.90
9537;DHT22;4807;48.024;11.726;2024-01-25T08:01:12;7.00;99.90
9537;DHT22;4807;48.024;11.726;2024-01-25T08:04:22;7.10;99.90
9537;DHT22;4807;48.024;11.726;2024-01-25T08:07:31;7.20;99.90
9537;DHT22;4807;48.024;11.726;2024-01-25T08:10:41;7.30;99.90
9537;DHT22;4807;48.024;11.726;2024-01-25T08:13:52;7.20;99.90
9537;DHT22;4807;48.024;11.726;2024-01-25T08:17:01;7.20;99.90
9537;DHT22;4807;48.024;11.726;2024-01-25T08:20:11;7.30;99.90
9537;DHT22;4807;48.024;11.726;2024-01-25T08:23:20;7.40;99.90
9537;DHT22;4807;48.024;11.726;2024-01-25T08:26:30;7.50;99.90
9537;DHT22;4807;48.024;11.726;2024-01-25T08:29:39;7.70;99.90
9537;DHT22;4807;48.024;11.726;2024-01-25T08:32:47;7.90;99.90
9537;DHT22;4807;48.024;11.726;2024-01-25T08:35:56;8.00;99.90
9537;DHT22;4807;48.024;11.726;2024-01-25T08:39:05;7.90;99.90
9537;DHT22;4807;48.024;11.726;2024-01-25T08:42:18;7.90;99.90
9537;DHT22;4807;48.024;11.726;2024-01-25T08:45:27;7.80;99.90
9537;DHT22;4807;48.024;11.726;2024-01-25T08:48:35;7.80;99.90
9537;DHT22;4807;48.024;11.726;2024-01-25T08:51:44;7.80;99.90
9537;DHT22;4807;48.024;11.726;2024-01-25T08:54:53;7.60;99.90
9537;DHT22;4807;48.024;11.726;2024-01-25T08:58:02;7.60;99.90
9537;DHT22;4807;48.024;11.726;2024-01-25T09:01:11;7.60;99.90
9537;DHT22;4807;48.024;11.726;2024-01-25T09:04:19;7.70;99.90
9537;DHT22;4807;48.024;11.726;2024-01-25T09:07:31;7.90;99.60
9537;DHT22;4807;48.024;11.726;2024-01-25T09:10:41;7.80;99.90
9537;DHT22;4807;48.024;11.726;2024-01-25T09:13:51;7.80;99.30
9537;DHT22;4807;48.024;11.726;2024-01-25T09:17:00;7.70;99.20
9537;DHT22;4807;48.024;11.726;2024-01-25T09:20:08;7.70;99.60
9537;DHT22;4807;48.024;11.726;2024-01-25T09:23:18;7.80;99.20
9537;DHT22;4807;48.024;11.726;2024-01-25T09:26:26;7.70;97.80
9537;DHT22;4807;48.024;11.726;2024-01-25T09:29:36;7.70;98.20
9537;DHT22;4807;48.024;11.726;2024-01-25T09:32:46;7.60;98.10
9537;DHT22;4807;48.024;11.726;2024-01-25T09:35:57;7.40;98.50
9537;DHT22;4807;48.024;11.726;2024-01-25T09:39:06;7.40;99.30
9537;DHT22;4807;48.024;11.726;2024-01-25T09:42:15;7.50;99.10
9537;DHT22;4807;48.024;11.726;2024-01-25T09:45:26;7.70;98.20
9537;DHT22;4807;48.024;11.726;2024-01-25T09:48:37;7.90;98.20
9537;DHT22;4807;48.024;11.726;2024-01-25T09:51:47;8.20;98.30
9537;DHT22;4807;48.024;11.726;2024-01-25T09:54:59;8.40;97.50
9537;DHT22;4807;48.024;11.726;2024-01-25T09:58:08;8.30;97.50
9537;DHT22;4807;48.024;11.726;2024-01-25T10:01:20;8.30;97.80
9537;DHT22;4807;48.024;11.726;2024-01-25T10:04:28;8.40;97.50
9537;DHT22;4807;48.024;11.726;2024-01-25T10:07:40;8.30;97.20
9537;DHT22;4807;48.024;11.726;2024-01-25T10:10:50;8.20;97.80
9537;DHT22;4807;48.024;11.726;2024-01-25T10:14:00;8.20;98.20
9537;DHT22;4807;48.024;11.726;2024-01-25T10:17:11;8.30;98.40
9537;DHT22;4807;48.024;11.726;2024-01-25T10:20:20;8.50;98.50
9537;DHT22;4807;48.024;11.726;2024-01-25T10:23:34;8.50;98.80
9537;DHT22;4807;48.024;11.726;2024-01-25T10:26:42;8.60;96.90
9537;DHT22;4807;48.024;11.726;2024-01-25T10:29:51;8.60;97.20
9537;DHT22;4807;48.024;11.726;2024-01-25T10:33:01;8.70;97.20
9537;DHT22;4807;48.024;11.726;2024-01-25T10:36:12;8.70;96.90
9537;DHT22;4807;48.024;11.726;2024-01-25T10:39:21;8.80;96.10
9537;DHT22;4807;48.024;11.726;2024-01-25T10:42:30;8.80;96.10
9537;DHT22;4807;48.024;11.726;2024-01-25T10:45:38;9.00;96.00
9537;DHT22;4807;48.024;11.726;2024-01-25T10:48:49;9.40;96.00
9537;DHT22;4807;48.024;11.726;2024-01-25T10:51:59;9.60;95.70
9537;DHT22;4807;48.024;11.726;2024-01-25T10:55:08;9.70;96.00
9537;DHT22;4807;48.024;11.726;2024-01-25T10:58:18;9.60;95.90
9537;DHT22;4807;48.024;11.726;2024-01-25T11:01:27;9.60;95.90
9537;DHT22;4807;48.024;11.726;2024-01-25T11:04:38;9.80;95.10
9537;DHT22;4807;48.024;11.726;2024-01-25T11:07:48;9.70;92.90
9537;DHT22;4807;48.024;11.726;2024-01-25T11:10:58;9.80;93.90
9537;DHT22;4807;48.024;11.726;2024-01-25T11:14:13;9.90;93.30
9537;DHT22;4807;48.024;11.726;2024-01-25T11:17:23;9.80;92.90
9537;DHT22;4807;48.024;11.726;2024-01-25T11:20:34;9.80;92.60
9537;DHT22;4807;48.024;11.726;2024-01-25T11:23:44;9.70;92.70
9537;DHT22;4807;48.024;11.726;2024-01-25T11:26:54;9.70;93.80
9537;DHT22;4807;48.024;11.726;2024-01-25T11:30:08;9.50;93.60
9537;DHT22;4807;48.024;11.726;2024-01-25T11:33:18;9.60;93.10
9537;DHT22;4807;48.024;11.726;2024-01-25T11:36:28;9.80;92.50
9537;DHT22;4807;48.024;11.726;2024-01-25T11:39:37;9.80;92.70
9537;DHT22;4807;48.024;11.726;2024-01-25T11:42:47;9.90;91.60
9537;DHT22;4807;48.024;11.726;2024-01-25T11:45:56;10.20;90.90
9537;DHT22;4807;48.024;11.726;2024-01-25T11:49:05;10.20;90.60
9537;DHT22;4807;48.024;11.726;2024-01-25T11:52:16;10.10;90.50
9537;DHT22;4807;48.024;11.726;2024-01-25T11:55:25;10.00;90.80
9537;DHT22;4807;48.024;11.726;2024-01-25T11:58:33;10.00;91.20
9537;DHT22;4807;48.024;11.726;2024-01-25T12:01:47;10.00;90.00
9537;DHT22;4807;48.024;11.726;2024-01-25T12:04:57;9.80;91.20
9537;DHT22;4807;48.024;11.726;2024-01-25T12:08:12;9.90;92.00
9537;DHT22;4807;48.024;11.726;2024-01-25T12:11:21;9.90;91.60
9537;DHT22;4807;48.024;11.726;2024-01-25T12:14:31;9.90;91.70
9537;DHT22;4807;48.024;11.726;2024-01-25T12:17:39;10.10;90.80
9537;DHT22;4807;48.024;11.726;2024-01-25T12:20:48;10.20;90.70
9537;DHT22;4807;48.024;11.726;2024-01-25T12:23:58;10.20;91.10
9537;DHT22;4807;48.024;11.726;2024-01-25T12:27:06;10.30;90.20
9537;DHT22;4807;48.024;11.726;2024-01-25T12:30:15;10.20;90.80
9537;DHT22;4807;48.024;11.726;2024-01-25T12:33:23;10.20;91.30
9537;DHT22;4807;48.024;11.726;2024-01-25T12:36:35;10.40;91.00
9537;DHT22;4807;48.024;11.726;2024-01-25T12:39:44;10.50;90.20
9537;DHT22;4807;48.024;11.726;2024-01-25T12:42:53;10.60;90.10
9537;DHT22;4807;48.024;11.726;2024-01-25T12:46:01;10.60;89.60
9537;DHT22;4807;48.024;11.726;2024-01-25T12:49:28;10.50;90.20
9537;DHT22;4807;48.024;11.726;2024-01-25T12:52:36;10.50;89.40
9537;DHT22;4807;48.024;11.726;2024-01-25T12:55:46;10.50;90.00
9537;DHT22;4807;48.024;11.726;2024-01-25T12:58:54;10.50;90.00
9537;DHT22;4807;48.024;11.726;2024-01-25T13:02:03;10.40;89.80
9537;DHT22;4807;48.024;11.726;2024-01-25T13:05:13;10.50;90.10
9537;DHT22;4807;48.024;11.726;2024-01-25T13:08:22;10.40;89.40
9537;DHT22;4807;48.024;11.726;2024-01-25T13:11:31;10.40;89.60
9537;DHT22;4807;48.024;11.726;2024-01-25T13:14:40;10.20;89.90
9537;DHT22;4807;48.024;11.726;2024-01-25T13:17:48;10.00;90.90
9537;DHT22;4807;48.024;11.726;2024-01-25T13:20:56;9.80;91.90
9537;DHT22;4807;48.024;11.726;2024-01-25T13:24:05;9.60;92.70
9537;DHT22;4807;48.024;11.726;2024-01-25T13:27:15;9.50;92.60
9537;DHT22;4807;48.024;11.726;2024-01-25T13:30:24;9.50;93.00
9537;DHT22;4807;48.024;11.726;2024-01-25T13:33:32;9.60;92.80
9537;DHT22;4807;48.024;11.726;2024-01-25T13:36:41;9.60;92.80
9537;DHT22;4807;48.024;11.726;2024-01-25T13:39:49;9.70;92.40
9537;DHT22;4807;48.024;11.726;2024-01-25T13:42:59;9.70;92.50
9537;DHT22;4807;48.024;11.726;2024-01-25T13:46:08;9.70;92.40
9537;DHT22;4807;48.024;11.726;2024-01-25T13:49:16;9.70;92.40
9537;DHT22;4807;48.024;11.726;2024-01-25T13:52:25;9.80;93.10
9537;DHT22;4807;48.024;11.726;2024-01-25T13:55:33;9.90;92.80
9537;DHT22;4807;48.024;11.726;2024-01-25T13:58:43;9.90;92.50
9537;DHT22;4807;48.024;11.726;2024-01-25T14:01:51;9.80;92.00
9537;DHT22;4807;48.024;11.726;2024-01-25T14:05:00;9.80;92.10
9537;DHT22;4807;48.024;11.726;2024-01-25T14:08:08;9.60;92.00
9537;DHT22;4807;48.024;11.726;2024-01-25T14:11:17;9.50;92.30
9537;DHT22;4807;48.024;11.726;2024-01-25T14:14:26;9.40;92.70
9537;DHT22;4807;48.024;11.726;2024-01-25T14:17:35;9.50;92.60
9537;DHT22;4807;48.024;11.726;2024-01-25T14:20:45;9.40;93.30
9537;DHT22;4807;48.024;11.726;2024-01-25T14:23:53;9.40;93.30
9537;DHT22;4807;48.024;11.726;2024-01-25T14:27:02;9.40;93.00
9537;DHT22;4807;48.024;11.726;2024-01-25T14:30:12;9.30;93.10
9537;DHT22;4807;48.024;11.726;2024-01-25T14:33:21;9.30;93.50
9537;DHT22;4807;48.024;11.726;2024-01-25T14:36:30;9.30;93.70
9537;DHT22;4807;48.024;11.726;2024-01-25T14:39:38;9.40;93.80
9537;DHT22;4807;48.024;11.726;2024-01-25T14:42:54;9.50;93.60
9537;DHT22;4807;48.024;11.726;2024-01-25T14:46:04;9.50;94.70
9537;DHT22;4807;48.024;11.726;2024-01-25T14:49:12;9.50;95.10
9537;DHT22;4807;48.024;11.726;2024-01-25T14:52:22;9.50;95.10
9537;DHT22;4807;48.024;11.726;2024-01-25T14:55:30;9.40;95.40
9537;DHT22;4807;48.024;11.726;2024-01-25T14:58:39;9.40;95.50
9537;DHT22;4807;48.024;11.726;2024-01-25T15:01:48;7.50;94.60
9537;DHT22;4807;48.024;11.726;2024-01-25T15:04:57;10.40;95.20
9537;DHT22;4807;48.024;11.726;2024-01-25T15:08:06;9.10;95.40
9537;DHT22;4807;48.024;11.726;2024-01-25T15:11:14;9.00;95.10
9537;DHT22;4807;48.024;11.726;2024-01-25T15:14:24;8.90;95.30
9537;DHT22;4807;48.024;11.726;2024-01-25T15:17:34;8.80;95.30
9537;DHT22;4807;48.024;11.726;2024-01-25T15:20:42;8.70;95.50
9537;DHT22;4807;48.024;11.726;2024-01-25T15:23:51;8.60;95.70
9537;DHT22;4807;48.024;11.726;2024-01-25T15:27:00;8.40;96.00
9537;DHT22;4807;48.024;11.726;2024-01-25T15:30:09;8.30;96.40
9537;DHT22;4807;48.024;11.726;2024-01-25T15:33:20;8.30;96.30
9537;DHT22;4807;48.024;11.726;2024-01-25T15:36:29;8.20;96.70
9537;DHT22;4807;48.024;11.726;2024-01-25T15:39:41;8.10;96.90
9537;DHT22;4807;48.024;11.726;2024-01-25T15:43:03;8.10;97.00
9537;DHT22;4807;48.024;11.726;2024-01-25T15:46:12;7.90;97.20
9537;DHT22;4807;48.024;11.726;2024-01-25T15:49:25;7.80;97.50
9537;DHT22;4807;48.024;11.726;2024-01-25T15:52:34;7.80;97.80
9537;DHT22;4807;48.024;11.726;2024-01-25T15:55:43;7.80;97.90
9537;DHT22;4807;48.024;11.726;2024-01-25T15:58:52;7.70;98.10
9537;DHT22;4807;48.024;11.726;2024-01-25T16:02:01;7.50;98.30
9537;DHT22;4807;48.024;11.726;2024-01-25T16:05:11;7.50;98.70
9537;DHT22;4807;48.024;11.726;2024-01-25T16:08:20;7.40;98.90
9537;DHT22;4807;48.024;11.726;2024-01-25T16:11:28;7.30;99.20
9537;DHT22;4807;48.024;11.726;2024-01-25T16:14:37;7.20;99.50
9537;DHT22;4807;48.024;11.726;2024-01-25T16:17:46;7.30;99.50
9537;DHT22;4807;48.024;11.726;2024-01-25T16:20:56;7.40;99.60
9537;DHT22;4807;48.024;11.726;2024-01-25T16:24:05;7.40;99.70
9537;DHT22;4807;48.024;11.726;2024-01-25T16:27:14;7.40;99.90
9537;DHT22;4807;48.024;11.726;2024-01-25T16:30:23;7.40;99.90
9537;DHT22;4807;48.024;11.726;2024-01-25T16:33:32;7.50;99.90
9537;DHT22;4807;48.024;11.726;2024-01-25T16:36:43;7.40;99.90
9537;DHT22;4807;48.024;11.726;2024-01-25T16:39:51;7.30;99.90
9537;DHT22;4807;48.024;11.726;2024-01-25T16:43:00;7.40;99.90
9537;DHT22;4807;48.024;11.726;2024-01-25T16:46:09;7.30;99.90
9537;DHT22;4807;48.024;11.726;2024-01-25T16:49:17;7.30;99.90
9537;DHT22;4807;48.024;11.726;2024-01-25T16:52:28;7.80;99.90
9537;DHT22;4807;48.024;11.726;2024-01-25T16:55:36;7.20;99.90
9537;DHT22;4807;48.024;11.726;2024-01-25T16:58:45;7.10;99.90
9537;DHT22;4807;48.024;11.726;2024-01-25T17:01:53;7.20;99.90
9537;DHT22;4807;48.024;11.726;2024-01-25T17:05:01;7.30;99.90
9537;DHT22;4807;48.024;11.726;2024-01-25T17:08:12;7.30;99.90
9537;DHT22;4807;48.024;11.726;2024-01-25T17:11:20;7.30;99.90
9537;DHT22;4807;48.024;11.726;2024-01-25T17:14:29;7.30;99.90
9537;DHT22;4807;48.024;11.726;2024-01-25T17:17:40;7.30;99.90
9537;DHT22;4807;48.024;11.726;2024-01-25T17:20:48;7.20;99.90
9537;DHT22;4807;48.024;11.726;2024-01-25T17:23:58;7.10;99.90
9537;DHT22;4807;48.024;11.726;2024-01-25T17:27:07;7.00;99.90
9537;DHT22;4807;48.024;11.726;2024-01-25T17:30:15;7.00;99.90
9537;DHT22;4807;48.024;11.726;2024-01-25T17:33:24;7.10;99.90
9537;DHT22;4807;48.024;11.726;2024-01-25T17:36:32;7.10;99.90
9537;DHT22;4807;48.024;11.726;2024-01-25T17:39:42;7.00;99.90
9537;DHT22;4807;48.024;11.726;2024-01-25T17:42:51;6.90;99.90
9537;DHT22;4807;48.024;11.726;2024-01-25T17:46:00;6.90;99.90
9537;DHT22;4807;48.024;11.726;2024-01-25T17:49:08;7.00;99.90
9537;DHT22;4807;48.024;11.726;2024-01-25T17:52:18;7.00;99.90
9537;DHT22;4807;48.024;11.726;2024-01-25T17:55:31;7.00;99.90
9537;DHT22;4807;48.024;11.726;2024-01-25T17:58:41;7.10;99.90
9537;DHT22;4807;48.024;11.726;2024-01-25T18:01:49;7.10;99.90
9537;DHT22;4807;48.024;11.726;2024-01-25T18:04:57;7.00;99.90
9537;DHT22;4807;48.024;11.726;2024-01-25T18:08:06;7.00;99.90
9537;DHT22;4807;48.024;11.726;2024-01-25T18:11:15;7.10;99.90
9537;DHT22;4807;48.024;11.726;2024-01-25T18:14:24;7.10;99.90
9537;DHT22;4807;48.024;11.726;2024-01-25T18:17:33;7.00;99.90
9537;DHT22;4807;48.024;11.726;2024-01-25T18:20:41;7.00;99.90
9537;DHT22;4807;48.024;11.726;2024-01-25T18:23:50;7.00;99.90
9537;DHT22;4807;48.024;11.726;2024-01-25T18:26:59;6.90;99.90
9537;DHT22;4807;48.024;11.726;2024-01-25T18:30:08;7.00;99.90
9537;DHT22;4807;48.024;11.726;2024-01-25T18:33:17;7.00;99.90
9537;DHT22;4807;48.024;11.726;2024-01-25T18:36:29;6.90;99.90
9537;DHT22;4807;48.024;11.726;2024-01-25T18:39:38;8.80;99.90
9537;DHT22;4807;48.024;11.726;2024-01-25T18:42:48;6.80;99.90
9537;DHT22;4807;48.024;11.726;2024-01-25T18:45:59;6.80;99.90
9537;DHT22;4807;48.024;11.726;2024-01-25T18:49:09;6.70;99.90
9537;DHT22;4807;48.024;11.726;2024-01-25T18:52:17;6.70;99.90
9537;DHT22;4807;48.024;11.726;2024-01-25T18:55:30;6.80;99.90
9537;DHT22;4807;48.024;11.726;2024-01-25T18:58:41;6.70;99.90
9537;DHT22;4807;48.024;11.726;2024-01-25T19:01:50;6.80;99.90
9537;DHT22;4807;48.024;11.726;2024-01-25T19:05:00;6.70;99.90
9537;DHT22;4807;48.024;11.726;2024-01-25T19:08:12;6.80;99.90
9537;DHT22;4807;48.024;11.726;2024-01-25T19:11:21;6.70;99.90
9537;DHT22;4807;48.024;11.726;2024-01-25T19:14:31;6.70;99.90
9537;DHT22;4807;48.024;11.726;2024-01-25T19:17:40;6.70;99.90
9537;DHT22;4807;48.024;11.726;2024-01-25T19:20:50;6.70;99.90
9537;DHT22;4807;48.024;11.726;2024-01-25T19:23:58;6.70;99.90
9537;DHT22;4807;48.024;11.726;2024-01-25T19:27:07;6.70;99.90
9537;DHT22;4807;48.024;11.726;2024-01-25T19:30:17;6.80;99.90
9537;DHT22;4807;48.024;11.726;2024-01-25T19:33:26;6.70;99.90
9537;DHT22;4807;48.024;11.726;2024-01-25T19:36:35;6.80;99.90
9537;DHT22;4807;48.024;11.726;2024-01-25T19:39:44;6.80;99.90
9537;DHT22;4807;48.024;11.726;2024-01-25T19:42:53;6.70;99.90
9537;DHT22;4807;48.024;11.726;2024-01-25T19:46:04;6.70;99.90
9537;DHT22;4807;48.024;11.726;2024-01-25T19:49:13;6.70;99.90
9537;DHT22;4807;48.024;11.726;2024-01-25T19:52:22;6.70;99.90
9537;DHT22;4807;48.024;11.726;2024-01-25T19:55:30;6.90;99.90
9537;DHT22;4807;48.024;11.726;2024-01-25T19:58:39;5.30;99.90
9537;DHT22;4807;48.024;11.726;2024-01-25T20:01:50;6.90;99.90
9537;DHT22;4807;48.024;11.726;2024-01-25T20:04:59;7.00;99.90
9537;DHT22;4807;48.024;11.726;2024-01-25T20:08:09;7.00;99.90
9537;DHT22;4807;48.024;11.726;2024-01-25T20:11:19;7.00;99.90
9537;DHT22;4807;48.024;11.726;2024-01-25T20:14:27;7.00;99.90
9537;DHT22;4807;48.024;11.726;2024-01-25T20:17:37;7.10;99.90
9537;DHT22;4807;48.024;11.726;2024-01-25T20:20:46;7.10;99.90
9537;DHT22;4807;48.024;11.726;2024-01-25T20:23:55;7.20;99.90
9537;DHT22;4807;48.024;11.726;2024-01-25T20:27:04;7.30;99.90
9537;DHT22;4807;48.024;11.726;2024-01-25T20:30:13;7.40;99.90
9537;DHT22;4807;48.024;11.726;2024-01-25T20:33:24;7.50;99.90